createdAt,value
2024-05-09T00:01:59.290Z,84.32
2024-05-09T00:04:29.965Z,83.78
2024-05-09T00:07:03.631Z,84.10
2024-05-09T00:09:34.913Z,83.98
2024-05-09T00:12:05.596Z,83.93
2024-05-09T00:14:38.266Z,83.72
2024-05-09T00:17:10.423Z,83.45
2024-05-09T00:19:43.024Z,83.59
2024-05-09T00:22:14.408Z,83.48
2024-05-09T00:24:45.562Z,83.09
2024-05-09T00:27:19.254Z,82.85
2024-05-09T00:29:54.094Z,82.82
2024-05-09T00:32:27.258Z,82.95
2024-05-09T00:35:01.130Z,83.19
2024-05-09T00:37:30.881Z,83.56
2024-05-09T00:40:00.659Z,83.56
2024-05-09T00:42:31.067Z,83.61
2024-05-09T00:45:03.730Z,83.89
2024-05-09T00:47:33.933Z,84.28
2024-05-09T00:50:09.809Z,85.07
2024-05-09T00:52:44.177Z,85.03
2024-05-09T00:55:15.201Z,85.57
2024-05-09T00:57:46.810Z,84.87
2024-05-09T01:00:27.151Z,85.53
2024-05-09T01:03:05.932Z,85.57
2024-05-09T01:05:49.075Z,85.77
2024-05-09T01:08:19.927Z,85.55
2024-05-09T01:10:50.474Z,86.39
2024-05-09T01:13:21.978Z,86.82
2024-05-09T01:15:58.111Z,87.19
2024-05-09T01:18:30.436Z,87.27
2024-05-09T01:21:01.744Z,86.79
2024-05-09T01:23:35.063Z,87.56
2024-05-09T01:26:07.884Z,86.89
2024-05-09T01:28:40.579Z,87.03
2024-05-09T01:31:16.492Z,86.93
2024-05-09T01:33:49.500Z,86.98
2024-05-09T01:36:22.572Z,86.99
2024-05-09T01:38:56.180Z,86.93
2024-05-09T01:41:26.546Z,86.71
2024-05-09T01:43:57.021Z,86.88
2024-05-09T01:46:27.536Z,86.92
2024-05-09T01:48:59.063Z,86.70
2024-05-09T01:51:29.709Z,86.69
2024-05-09T01:54:02.563Z,87.11
2024-05-09T01:56:33.953Z,86.82
2024-05-09T01:59:04.888Z,86.94
2024-05-09T02:01:55.789Z,86.91
2024-05-09T02:04:33.051Z,87.34
2024-05-09T02:07:04.096Z,87.43
2024-05-09T02:09:37.558Z,87.52
2024-05-09T02:12:08.875Z,88.11
2024-05-09T02:14:39.054Z,88.15
2024-05-09T02:17:11.969Z,88.04
2024-05-09T02:19:43.899Z,88.20
2024-05-09T02:22:14.199Z,88.02
2024-05-09T02:24:47.647Z,88.36
2024-05-09T02:27:17.917Z,88.32
2024-05-09T02:29:48.157Z,88.32
2024-05-09T02:32:24.198Z,87.85
2024-05-09T02:34:55.518Z,87.49
2024-05-09T02:37:26.773Z,87.75
2024-05-09T02:39:56.925Z,87.77
2024-05-09T02:42:32.426Z,88.26
2024-05-09T02:45:00.369Z,87.90
2024-05-09T02:47:34.953Z,87.97
2024-05-09T02:50:07.780Z,88.01
2024-05-09T02:52:38.395Z,87.84
2024-05-09T02:55:08.679Z,88.23
2024-05-09T02:57:38.658Z,88.33
2024-05-09T03:00:12.018Z,88.35
2024-05-09T03:02:46.354Z,87.94
2024-05-09T03:05:14.075Z,88.24
2024-05-09T03:07:45.948Z,88.19
2024-05-09T03:10:22.269Z,88.12
2024-05-09T03:12:58.732Z,88.41
2024-05-09T03:15:25.953Z,88.55
2024-05-09T03:17:57.180Z,88.78
2024-05-09T03:20:32.257Z,88.65
2024-05-09T03:23:05.491Z,88.76
2024-05-09T03:25:36.175Z,89.03
2024-05-09T03:28:07.044Z,89.27
2024-05-09T03:30:41.104Z,89.17
2024-05-09T03:33:18.025Z,88.94
2024-05-09T03:35:49.524Z,88.67
2024-05-09T03:38:20.022Z,88.40
2024-05-09T03:40:53.426Z,88.46
2024-05-09T03:43:22.059Z,88.67
2024-05-09T03:48:37.889Z,88.84
2024-05-09T03:51:08.740Z,88.83
2024-05-09T03:53:36.433Z,88.65
2024-05-09T03:56:16.976Z,88.46
2024-05-09T03:58:44.892Z,88.20
2024-05-09T04:01:15.062Z,88.42
2024-05-09T04:03:43.144Z,88.10
2024-05-09T04:06:13.859Z,88.31
2024-05-09T04:08:41.144Z,88.39
2024-05-09T04:11:15.987Z,88.45
2024-05-09T04:13:43.975Z,87.77
2024-05-09T04:16:14.819Z,87.70
2024-05-09T04:18:42.385Z,87.55
2024-05-09T04:21:12.980Z,87.27
2024-05-09T04:23:40.911Z,87.43
2024-05-09T04:26:11.603Z,87.11
2024-05-09T04:28:44.683Z,87.42
2024-05-09T04:31:15.605Z,87.07
2024-05-09T04:33:46.802Z,87.03
2024-05-09T04:36:17.030Z,86.41
2024-05-09T04:38:46.319Z,86.45
2024-05-09T04:41:20.462Z,85.81
2024-05-09T04:43:51.562Z,84.34
2024-05-09T04:46:23.101Z,81.32
2024-05-09T04:48:53.674Z,80.39
2024-05-09T04:51:26.600Z,79.71
2024-05-09T04:53:55.459Z,79.00
2024-05-09T04:56:27.480Z,78.29
2024-05-09T04:58:57.842Z,76.94
2024-05-09T05:01:28.383Z,76.52
2024-05-09T05:03:58.010Z,76.23
2024-05-09T05:06:28.238Z,74.42
2024-05-09T05:08:57.254Z,73.28
2024-05-09T05:11:27.463Z,74.08
2024-05-09T05:13:57.676Z,72.80
2024-05-09T05:16:29.032Z,71.24
2024-05-09T05:18:56.507Z,65.37
2024-05-09T05:21:27.400Z,58.16
2024-05-09T05:23:54.605Z,62.44
2024-05-09T05:26:25.483Z,55.83
2024-05-09T05:28:53.078Z,59.20
2024-05-09T05:31:26.494Z,52.98
2024-05-09T05:33:54.731Z,52.32
2024-05-09T05:36:24.878Z,50.70
2024-05-09T05:38:53.202Z,46.58
2024-05-09T05:41:23.243Z,48.70
2024-05-09T05:43:50.611Z,49.80
2024-05-09T05:46:21.929Z,54.80
2024-05-09T05:48:53.682Z,55.13
2024-05-09T05:51:25.010Z,57.27
2024-05-09T05:53:55.260Z,55.72
2024-05-09T05:56:25.739Z,54.82
2024-05-09T05:58:55.261Z,58.57
2024-05-09T06:01:25.396Z,51.97
2024-05-09T06:03:56.112Z,55.90
2024-05-09T06:06:27.418Z,56.11
2024-05-09T06:08:55.270Z,54.10
2024-05-09T06:11:28.439Z,54.61
2024-05-09T06:13:57.657Z,57.58
2024-05-09T06:16:28.480Z,54.40
2024-05-09T06:19:01.601Z,53.92
2024-05-09T06:21:31.611Z,51.56
2024-05-09T06:24:05.335Z,50.67
2024-05-09T06:26:37.387Z,48.63
2024-05-09T06:29:05.617Z,51.37
2024-05-09T06:31:43.916Z,55.34
2024-05-09T06:34:13.832Z,52.25
2024-05-09T06:36:45.246Z,52.31
2024-05-09T06:39:14.202Z,48.73
2024-05-09T06:41:46.930Z,51.63
2024-05-09T06:44:15.470Z,48.47
2024-05-09T06:46:50.687Z,54.00
2024-05-09T06:49:21.404Z,52.88
2024-05-09T06:51:57.387Z,55.37
2024-05-09T06:54:25.926Z,54.60
2024-05-09T06:56:56.335Z,51.03
2024-05-09T06:59:25.474Z,51.31
2024-05-09T07:01:56.362Z,48.81
2024-05-09T07:04:28.461Z,45.96
2024-05-09T07:07:00.155Z,46.79
2024-05-09T07:09:28.508Z,47.07
2024-05-09T07:11:58.747Z,50.17
2024-05-09T07:14:34.512Z,46.73
2024-05-09T07:17:09.647Z,46.12
2024-05-09T07:19:40.342Z,46.49
2024-05-09T07:22:10.515Z,42.09
2024-05-09T07:24:38.071Z,41.25
2024-05-09T07:27:09.563Z,44.39
2024-05-09T07:29:40.670Z,41.76
2024-05-09T07:32:12.205Z,48.76
2024-05-09T07:34:43.697Z,44.26
2024-05-09T07:37:15.806Z,42.63
2024-05-09T07:39:43.198Z,47.90
2024-05-09T07:42:14.222Z,48.46
2024-05-09T07:44:42.305Z,43.95
2024-05-09T07:48:27.705Z,44.15
2024-05-09T07:52:22.649Z,45.45
2024-05-09T07:55:26.881Z,45.70
2024-05-09T07:57:56.986Z,35.06
2024-05-09T08:00:30.903Z,37.62
2024-05-09T08:03:01.582Z,45.13
2024-05-09T08:05:32.686Z,44.29
2024-05-09T08:08:03.306Z,42.76
2024-05-09T08:10:31.078Z,38.42
2024-05-09T08:13:01.042Z,33.71
2024-05-09T08:15:29.606Z,37.10
2024-05-09T08:18:01.649Z,41.77
2024-05-09T08:20:33.494Z,41.12
2024-05-09T08:23:08.112Z,38.00
2024-05-09T08:26:01.068Z,40.47
2024-05-09T08:28:32.993Z,40.74
2024-05-09T08:31:06.973Z,39.03
2024-05-09T08:33:47.517Z,41.29
2024-05-09T08:36:19.828Z,36.63
2024-05-09T08:39:05.665Z,39.57
2024-05-09T08:41:43.156Z,36.24
2024-05-09T08:44:33.548Z,38.75
2024-05-09T08:47:10.241Z,40.62
2024-05-09T08:49:57.372Z,38.36
2024-05-09T08:52:39.720Z,36.46
2024-05-09T08:55:29.045Z,37.56
2024-05-09T08:58:14.895Z,37.71
2024-05-09T09:00:49.442Z,36.24
2024-05-09T09:04:22.675Z,31.54
2024-05-09T09:07:22.606Z,35.04
2024-05-09T09:10:24.974Z,34.77
2024-05-09T09:13:05.355Z,31.55
2024-05-09T09:15:49.152Z,33.61
2024-05-09T09:18:24.340Z,33.49
2024-05-09T09:21:04.500Z,29.40
2024-05-09T09:23:38.423Z,31.00
2024-05-09T09:26:42.741Z,33.65
2024-05-09T09:29:36.094Z,30.80
2024-05-09T09:32:14.918Z,30.46
2024-05-09T09:35:10.713Z,32.02
2024-05-09T09:37:49.980Z,31.81
2024-05-09T09:40:31.932Z,30.47
2024-05-09T09:43:28.803Z,29.42
2024-05-09T09:46:22.546Z,30.47
2024-05-09T09:48:55.217Z,31.79
2024-05-09T09:51:26.835Z,32.51
2024-05-09T09:54:09.249Z,32.44
2024-05-09T09:56:39.843Z,33.96
2024-05-09T09:59:13.142Z,32.75
2024-05-09T10:01:47.894Z,28.18
2024-05-09T10:04:25.992Z,29.63
2024-05-09T10:07:27.692Z,29.43
2024-05-09T10:10:11.010Z,30.63
2024-05-09T10:13:00.224Z,32.62
2024-05-09T10:15:33.130Z,34.37
2024-05-09T10:21:36.105Z,29.93
2024-05-09T10:24:36.003Z,31.73
2024-05-09T10:27:21.214Z,29.35
2024-05-09T10:30:36.290Z,27.95
2024-05-09T10:41:26.619Z,34.84
2024-05-09T10:43:54.272Z,34.79
2024-05-09T10:46:50.561Z,37.04
2024-05-09T10:49:21.278Z,33.40
2024-05-09T10:51:51.987Z,32.39
2024-05-09T10:54:19.902Z,33.40
2024-05-09T10:56:59.687Z,32.46
2024-05-09T10:59:35.904Z,36.65
2024-05-09T11:02:07.789Z,36.03
2024-05-09T11:04:45.388Z,34.68
2024-05-09T11:07:19.032Z,34.57
2024-05-09T11:10:14.803Z,33.41
2024-05-09T11:13:13.177Z,32.12
2024-05-09T11:15:41.645Z,30.71
2024-05-09T11:18:27.882Z,30.02
2024-05-09T11:21:00.832Z,29.25
2024-05-09T11:23:34.715Z,30.41
2024-05-09T11:26:04.159Z,32.21
2024-05-09T11:28:34.855Z,33.19
2024-05-09T11:31:08.232Z,32.05
2024-05-09T11:33:41.181Z,31.40
2024-05-09T11:36:12.335Z,28.78
2024-05-09T11:38:43.315Z,30.48
2024-05-09T11:41:28.186Z,28.31
2024-05-09T11:44:02.483Z,29.72
2024-05-09T11:46:34.590Z,31.68
2024-05-09T11:49:10.741Z,30.98
2024-05-09T11:51:42.070Z,33.18
2024-05-09T11:54:11.848Z,32.66
2024-05-09T11:56:39.377Z,34.54
2024-05-09T11:59:11.039Z,34.35
2024-05-09T12:01:40.998Z,35.08
2024-05-09T12:04:12.802Z,33.20
2024-05-09T12:06:45.525Z,31.67
2024-05-09T12:09:15.368Z,30.12
2024-05-09T12:11:45.453Z,30.28
2024-05-09T12:14:15.845Z,29.16
2024-05-09T12:16:44.314Z,34.99
2024-05-09T12:19:14.668Z,34.33
2024-05-09T12:21:44.677Z,32.40
2024-05-09T12:24:18.807Z,32.83
2024-05-09T12:26:46.511Z,30.23
2024-05-09T12:29:16.936Z,31.54
2024-05-09T12:31:46.980Z,31.47
2024-05-09T12:34:22.067Z,31.09
2024-05-09T12:36:53.435Z,32.83
2024-05-09T12:39:26.550Z,30.92
2024-05-09T12:41:54.719Z,29.68
2024-05-09T12:44:27.165Z,30.48
2024-05-09T12:46:54.379Z,29.74
2024-05-09T12:49:41.101Z,32.05
2024-05-09T12:52:14.294Z,33.48
2024-05-09T12:55:08.683Z,31.29
2024-05-09T12:57:46.105Z,33.11
2024-05-09T13:00:28.349Z,32.92
2024-05-09T13:03:01.337Z,28.64
2024-05-09T13:05:32.782Z,31.55
2024-05-09T13:08:12.773Z,33.37
2024-05-09T13:10:47.894Z,31.58
2024-05-09T13:13:15.605Z,30.52
2024-05-09T13:15:49.509Z,29.92
2024-05-09T13:18:22.321Z,32.26
2024-05-09T13:20:55.361Z,31.71
2024-05-09T13:23:29.284Z,31.32
2024-05-09T13:25:58.226Z,30.85
2024-05-09T13:28:34.024Z,29.59
2024-05-09T13:31:01.308Z,29.42
2024-05-09T13:33:31.339Z,31.50
2024-05-09T13:35:58.853Z,29.13
2024-05-09T13:38:31.858Z,28.52
2024-05-09T13:40:59.622Z,30.03
2024-05-09T13:43:29.720Z,31.81
2024-05-09T13:46:00.012Z,31.82
2024-05-09T13:48:32.557Z,34.74
2024-05-09T13:51:00.680Z,32.03
2024-05-09T13:53:33.267Z,33.20
2024-05-09T13:56:02.246Z,35.07
2024-05-09T13:58:32.365Z,35.47
2024-05-09T14:00:59.695Z,35.81
2024-05-09T14:03:31.197Z,36.50
2024-05-09T14:06:01.116Z,37.27
2024-05-09T14:08:36.528Z,35.89
2024-05-09T14:11:06.810Z,37.39
2024-05-09T14:13:37.502Z,38.07
2024-05-09T14:16:07.118Z,37.54
2024-05-09T14:18:38.397Z,36.79
2024-05-09T14:21:06.349Z,37.19
2024-05-09T14:23:40.460Z,36.75
2024-05-09T14:26:07.887Z,35.62
2024-05-09T14:28:40.094Z,35.38
2024-05-09T14:31:07.214Z,38.03
2024-05-09T14:33:37.403Z,35.13
2024-05-09T14:36:05.078Z,35.28
2024-05-09T14:38:36.142Z,35.48
2024-05-09T14:41:09.566Z,35.16
2024-05-09T14:43:40.203Z,36.47
2024-05-09T14:46:07.793Z,35.49
2024-05-09T14:48:38.117Z,34.60
2024-05-09T14:51:06.270Z,35.28
2024-05-09T14:53:38.531Z,37.69
2024-05-09T14:56:11.039Z,35.33
2024-05-09T14:58:41.624Z,37.79
2024-05-09T15:01:09.426Z,38.05
2024-05-09T15:03:39.997Z,37.29
2024-05-09T15:06:09.451Z,36.23
2024-05-09T15:08:39.977Z,37.00
2024-05-09T15:11:10.110Z,35.67
2024-05-09T15:13:41.043Z,36.55
2024-05-09T15:16:09.146Z,35.23
2024-05-09T15:19:55.607Z,36.10
2024-05-09T15:22:25.721Z,36.23
2024-05-09T15:25:08.586Z,34.20
2024-05-09T15:27:47.187Z,35.14
2024-05-09T15:30:31.882Z,35.93
2024-05-09T15:33:08.175Z,34.74
2024-05-09T15:35:45.476Z,35.46
2024-05-09T15:38:20.395Z,34.97
2024-05-09T15:41:01.145Z,35.40
2024-05-09T15:46:30.324Z,34.48
2024-05-09T15:49:03.738Z,35.08
2024-05-09T15:51:36.932Z,34.90
2024-05-09T15:54:28.847Z,36.86
2024-05-09T15:57:29.824Z,36.70
2024-05-09T16:00:09.887Z,37.37
2024-05-09T16:02:45.289Z,38.13
2024-05-09T16:05:19.804Z,37.10
2024-05-09T16:07:55.822Z,36.35
2024-05-09T16:10:33.447Z,36.46
2024-05-09T16:13:02.968Z,37.25
2024-05-09T16:15:54.813Z,36.33
2024-05-09T16:21:16.232Z,36.22
2024-05-09T16:26:48.459Z,37.94
2024-05-09T16:29:30.054Z,36.90
2024-05-09T16:32:03.641Z,36.95
2024-05-09T16:34:30.990Z,36.97
2024-05-09T16:37:09.133Z,37.20
2024-05-09T16:39:40.668Z,38.47
2024-05-09T16:42:19.950Z,39.10
2024-05-09T16:44:55.017Z,37.93
2024-05-09T16:47:38.084Z,38.10
2024-05-09T16:50:31.067Z,38.23
2024-05-09T16:53:09.875Z,37.73
2024-05-09T16:55:41.076Z,37.48
2024-05-09T16:58:18.297Z,38.37
2024-05-09T17:03:46.690Z,37.42
2024-05-09T17:06:23.699Z,37.65
2024-05-09T17:08:51.745Z,39.06
2024-05-09T17:14:27.480Z,38.98
2024-05-09T17:17:02.534Z,40.36
2024-05-09T17:19:33.091Z,40.53
2024-05-09T17:22:18.787Z,40.89
2024-05-09T17:24:51.279Z,40.39
2024-05-09T17:27:25.301Z,40.33
2024-05-09T17:30:06.378Z,41.30
2024-05-09T17:32:58.957Z,41.40
2024-05-09T17:35:52.580Z,41.71
2024-05-09T17:38:23.801Z,40.74
2024-05-09T17:40:53.121Z,39.76
2024-05-09T17:43:23.927Z,40.68
2024-05-09T17:45:57.028Z,40.43
2024-05-09T17:48:27.439Z,39.95
2024-05-09T17:53:43.381Z,41.84
2024-05-09T17:56:11.215Z,41.58
2024-05-09T17:58:41.777Z,42.38
2024-05-09T18:01:10.080Z,42.56
2024-05-09T18:03:41.331Z,42.90
2024-05-09T18:06:11.509Z,42.89
2024-05-09T18:08:46.508Z,43.22
2024-05-09T18:11:32.968Z,43.92
2024-05-09T18:14:04.702Z,43.64
2024-05-09T18:16:33.713Z,45.40
2024-05-09T18:19:05.253Z,44.77
2024-05-09T18:21:39.385Z,45.64
2024-05-09T18:24:11.112Z,44.56
2024-05-09T18:26:42.317Z,46.10
2024-05-09T18:29:19.978Z,47.86
2024-05-09T18:31:50.936Z,47.25
2024-05-09T18:34:23.462Z,47.98
2024-05-09T18:36:55.001Z,48.75
2024-05-09T18:39:25.144Z,49.07
2024-05-09T18:41:52.723Z,48.99
2024-05-09T18:44:27.281Z,49.00
2024-05-09T18:46:55.055Z,50.11
2024-05-09T18:49:26.854Z,49.24
2024-05-09T18:51:57.180Z,50.69
2024-05-09T18:54:27.137Z,51.98
2024-05-09T18:56:55.250Z,52.99
2024-05-09T18:59:25.301Z,53.18
2024-05-09T19:01:53.645Z,55.18
2024-05-09T19:04:26.526Z,55.82
2024-05-09T19:06:56.896Z,57.10
2024-05-09T19:09:26.992Z,57.31
2024-05-09T19:11:55.489Z,57.38
2024-05-09T19:14:25.488Z,57.45
2024-05-09T19:16:54.302Z,57.61
2024-05-09T19:19:25.301Z,58.42
2024-05-09T19:21:52.690Z,58.89
2024-05-09T19:24:25.699Z,58.58
2024-05-09T19:26:54.301Z,57.17
2024-05-09T19:29:25.192Z,57.84
2024-05-09T19:31:52.709Z,58.18
2024-05-09T19:34:22.713Z,59.25
2024-05-09T19:36:50.502Z,60.69
2024-05-09T19:39:20.932Z,59.80
2024-05-09T19:41:53.825Z,61.33
2024-05-09T19:44:25.342Z,60.60
2024-05-09T19:46:52.521Z,60.24
2024-05-09T19:49:24.397Z,59.61
2024-05-09T19:51:51.870Z,60.98
2024-05-09T19:54:24.198Z,61.41
2024-05-09T19:56:56.207Z,61.52
2024-05-09T19:59:28.508Z,61.08
2024-05-09T20:01:56.240Z,62.03
2024-05-09T20:04:34.094Z,62.21
2024-05-09T20:07:04.180Z,62.28
2024-05-09T20:09:35.042Z,62.75
2024-05-09T20:12:06.564Z,63.71
2024-05-09T20:14:37.631Z,62.57
2024-05-09T20:17:05.803Z,63.14
2024-05-09T20:19:40.067Z,61.98
2024-05-09T20:22:09.483Z,61.11
2024-05-09T20:24:39.767Z,61.42
2024-05-09T20:27:11.411Z,60.85
2024-05-09T20:29:41.624Z,61.84
2024-05-09T20:32:09.188Z,62.03
2024-05-09T20:34:42.281Z,63.88
2024-05-09T20:37:10.024Z,65.76
2024-05-09T20:39:41.547Z,65.15
2024-05-09T20:42:12.294Z,65.75
2024-05-09T20:44:42.260Z,64.01
2024-05-09T20:47:13.671Z,63.87
2024-05-09T20:49:46.230Z,63.20
2024-05-09T20:52:14.305Z,63.51
2024-05-09T20:54:50.832Z,63.42
2024-05-09T20:57:20.839Z,63.00
2024-05-09T20:59:51.153Z,62.41
2024-05-09T21:02:20.625Z,63.76
2024-05-09T21:04:54.999Z,62.59
2024-05-09T21:07:23.166Z,63.21
2024-05-09T21:09:53.336Z,62.66
2024-05-09T21:12:23.123Z,62.84
2024-05-09T21:14:54.240Z,64.03
2024-05-09T21:17:21.769Z,64.46
2024-05-09T21:19:52.247Z,65.36
2024-05-09T21:22:19.961Z,67.22
2024-05-09T21:24:50.244Z,66.87
2024-05-09T21:27:19.219Z,66.69
2024-05-09T21:29:54.474Z,67.78
2024-05-09T21:32:22.098Z,67.38
2024-05-09T21:34:53.545Z,66.98
2024-05-09T21:37:21.049Z,66.94
2024-05-09T21:39:52.049Z,64.50
2024-05-09T21:42:20.814Z,65.25
2024-05-09T21:44:53.536Z,64.90
2024-05-09T21:47:23.947Z,66.27
2024-05-09T21:49:54.365Z,66.50
2024-05-09T21:52:21.787Z,65.84
2024-05-09T21:54:52.775Z,65.70
2024-05-09T21:57:24.194Z,66.22
2024-05-09T21:59:57.097Z,67.12
2024-05-09T22:02:26.293Z,68.75
2024-05-09T22:05:01.560Z,69.33
2024-05-09T22:07:32.121Z,70.16
2024-05-09T22:10:07.986Z,70.03
2024-05-09T22:12:37.414Z,70.47
2024-05-09T22:15:11.872Z,70.31
2024-05-09T22:17:40.475Z,70.95
2024-05-09T22:20:21.712Z,71.25
2024-05-09T22:22:55.474Z,71.69
2024-05-09T22:25:29.583Z,71.46
2024-05-09T22:27:58.181Z,71.62
2024-05-09T22:30:36.090Z,71.77
2024-05-09T22:33:10.689Z,71.58
2024-05-09T22:35:45.017Z,71.31
2024-05-09T22:38:24.727Z,71.01
2024-05-09T22:41:00.726Z,70.18
2024-05-09T22:43:28.926Z,70.83
2024-05-09T22:46:02.379Z,72.28
2024-05-09T22:48:30.442Z,72.78
2024-05-09T22:51:00.474Z,72.53
2024-05-09T22:53:27.855Z,72.56
2024-05-09T22:56:00.176Z,73.12
2024-05-09T22:58:29.076Z,72.10
2024-05-09T23:01:04.504Z,70.51
2024-05-09T23:03:33.813Z,69.80
2024-05-09T23:06:10.382Z,70.57
2024-05-09T23:08:41.494Z,71.78
2024-05-09T23:11:12.047Z,70.25
2024-05-09T23:13:42.079Z,70.13
2024-05-09T23:16:19.260Z,69.54
2024-05-09T23:18:46.651Z,70.16
2024-05-09T23:21:17.045Z,71.14
2024-05-09T23:23:44.452Z,71.55
2024-05-09T23:26:14.570Z,71.58
2024-05-09T23:28:42.026Z,71.59
2024-05-09T23:31:15.917Z,71.72
2024-05-09T23:33:47.019Z,72.62
2024-05-09T23:36:17.085Z,71.76
2024-05-09T23:38:45.248Z,71.79
2024-05-09T23:41:16.534Z,71.52
2024-05-09T23:43:43.777Z,71.94
2024-05-09T23:46:16.274Z,72.51
2024-05-09T23:48:43.748Z,72.92
2024-05-09T23:51:14.173Z,72.68
2024-05-09T23:53:44.729Z,71.60
2024-05-09T23:56:18.624Z,71.82
2024-05-09T23:58:47.041Z,72.93
